UKDE/OZH METAR and TAF weather

Enter ICAO airport designator
Station Type Date Time Source
UKDE METAR 2021/02/25 15:30 UTC NOAA

UKDE 251530Z 19004MPS 8000 OVC008 M00/M02 Q1028 R20/090070 NOSIG


Station Type Date Time Source
UKDE Decoded METAR 2021/02/25 15:30 UTC NOAA

Zaporizhzhia / Mokraya, Ukraine (UKDE) 47-52-02N 035-18-59E
Feb 25, 2021 - 10:30 AM EST / 2021.02.25 1530 UTC
Wind: from the S (190 degrees) at 9 MPH (8 KT):0
Visibility: 4 mile(s):0
Sky conditions: overcast
Temperature: 32 F (0 C)
Windchill: 24 F (-4 C):1
Dew Point: 28 F (-2 C)
Relative Humidity: 86%
Pressure (altimeter): 30.36 in. Hg (1028 hPa)
ob: UKDE 251530Z 19004MPS 8000 OVC008 M00/M02 Q1028 R20/090070 NOSIG
cycle: 15

Station Type Date Time Source
UKDE TAF 2020/06/03 15:15 UTC NOAA

TAF
AMD TAF
AMD UKDE 031510Z 0315/0524 21007MPS 9999 BKN030CB
TEMPO 0315/0318 VRB15G20MPS 0300 +TSRAGR SQ BKN007 BKN013CB

Example: see airport list